Goodwine, Illinois
Current Conditions -  °F | °C
As of 4:10 PM on Thursday 23 Oct 2014 (Local Time) from KTIP Reporting Station
Clear Clear  
Wind Chill: 62°   Ceiling: Unl
Heat Index: 62°   Visibility: 10mi
Dew Point: 43°   Wind: 9mph
Humidity: 50%   Direction: 190°S
Pressure: 30.12"   Gusts: NA
Location:  40.57°N, 87.78°W
Report Text: KTIP 232110Z AUTO 19008KT 10SM CLR 17/06 A3012 RMK AO2 T01650059
Loading
Personal Weather Stations






























Interactive Weather Map
Tropical Storm Tracking
New forecast layout! Learn more

10-Day Weather Forecast

Advertisements
Track Severe Weather on mobile